Terminal Aerodrome Forecast
Issued by NWS Upton, NY

Home | Current Version | Previous Version | Text Only | Print | Product List | Glossary On
Versions: 1 2 3 4 5 6 7 8 9 10 11 12 13 14 15 16 17 18 19 20 21 22 23 24 25 26 27 28 29 30 31 32 33 34 35
725
FTUS41 KOKX 300830 AAA
TAFJFK
TAF AMD
KJFK 300830Z 3009/0112 05020G27KT P6SM -RA OVC020
     FM301200 05023G31KT P6SM -RA OVC015
     FM301500 04023G32KT 3SM RA OVC010
     FM301800 04020G27KT 2SM -RA BR OVC008
     FM010300 04015G21KT 2SM -SHRA BR OVC008=

USA.gov is the U.S. government's official web portal to all federal, state and local government web resources and services.